Time;durP1;ratioP1;P1;durP2;ratioP2;P2;SDS_P1;SDS_P2;PMS_P1;PMS_P2;Temp;Humidity;BMP_temperature;BMP_pressure;BME280_temperature;BME280_humidity;BME280_pressure;Samples;Min_cycle;Max_cycle;Signal;HPM_P1;HPM_P2
2023/07/28 00:01:24;;;;;;;17.92;16.73;;;;;;;18.28;65.17;99267.97;4972987;28;98658;-84
2023/07/28 00:03:50;;;;;;;17.85;16.65;;;;;;;18.38;64.94;99265.38;4986707;28;97129;-84
2023/07/28 00:06:15;;;;;;;18.27;16.77;;;;;;;18.39;65.01;99269.75;4987788;28;97151;-84
2023/07/28 00:08:41;;;;;;;17.05;15.73;;;;;;;18.40;65.07;99266.94;4988903;28;98761;-84
2023/07/28 00:11:12;;;;;;;17.52;16.48;;;;;;;18.50;65.15;99269.66;4980779;28;98735;-84
2023/07/28 00:13:38;;;;;;;17.83;16.67;;;;;;;18.45;65.05;99264.75;4978246;28;97182;-85
2023/07/28 00:16:04;;;;;;;18.55;17.35;;;;;;;18.65;64.60;99264.91;4988821;28;98743;-84
2023/07/28 00:18:29;;;;;;;18.40;17.10;;;;;;;18.76;64.11;99262.19;4992694;28;98599;-84
2023/07/28 00:20:55;;;;;;;16.75;15.57;;;;;;;18.93;63.52;99253.63;4987899;28;97545;-84
2023/07/28 00:23:20;;;;;;;17.88;16.77;;;;;;;19.00;63.63;99244.16;4991969;28;96913;-84
2023/07/28 00:25:46;;;;;;;19.02;17.38;;;;;;;19.02;63.37;99248.50;4979078;28;97200;-84
2023/07/28 00:28:11;;;;;;;18.80;17.52;;;;;;;18.98;63.73;99245.25;4972265;28;98971;-84
2023/07/28 00:30:37;;;;;;;17.00;15.80;;;;;;;19.05;63.48;99249.06;4981898;28;98650;-84
2023/07/28 00:33:03;;;;;;;17.80;16.27;;;;;;;19.05;63.47;99246.41;4983745;28;96804;-84
2023/07/28 00:35:30;;;;;;;17.17;16.10;;;;;;;18.93;63.94;99245.66;4988952;28;99526;-84
2023/07/28 00:37:55;;;;;;;19.17;17.83;;;;;;;19.02;63.69;99241.34;4973970;28;99226;-84
2023/07/28 00:40:22;;;;;;;17.65;16.50;;;;;;;18.88;64.45;99233.72;4972551;28;98751;-84
2023/07/28 00:42:49;;;;;;;18.48;17.30;;;;;;;18.78;64.83;99236.34;4971461;28;96845;-84
2023/07/28 00:45:14;;;;;;;17.17;15.75;;;;;;;18.71;65.06;99222.69;4974759;28;96809;-83
2023/07/28 00:47:41;;;;;;;17.90;16.70;;;;;;;18.66;65.26;99229.38;4974810;28;98894;-84
2023/07/28 00:50:08;;;;;;;18.20;16.95;;;;;;;18.73;65.24;99236.75;4982565;28;98901;-84
2023/07/28 00:52:34;;;;;;;18.92;17.38;;;;;;;18.62;65.45;99228.81;4985337;28;97247;-85
2023/07/28 00:55:00;;;;;;;17.75;16.33;;;;;;;18.48;66.11;99221.97;4982957;28;96961;-83
2023/07/28 00:57:26;;;;;;;17.67;16.40;;;;;;;18.32;66.44;99222.44;4972828;28;99070;-83
2023/07/28 00:59:52;;;;;;;18.27;16.88;;;;;;;18.40;66.50;99210.31;4984995;28;99605;-85
2023/07/28 01:02:19;;;;;;;19.25;17.48;;;;;;;18.47;66.34;99217.66;4992563;28;96748;-83
2023/07/28 01:04:44;;;;;;;19.30;18.20;;;;;;;18.65;65.80;99217.06;4976775;28;96786;-83
2023/07/28 01:07:14;;;;;;;18.25;17.15;;;;;;;18.72;65.37;99213.75;4978574;28;99040;-83
2023/07/28 01:09:50;;;;;;;17.52;15.98;;;;;;;18.70;65.43;99217.50;4985042;28;98440;-83
2023/07/28 01:12:15;;;;;;;19.00;17.70;;;;;;;18.65;65.73;99214.41;4972363;28;96666;-84
2023/07/28 01:14:41;;;;;;;18.90;17.38;;;;;;;18.73;65.64;99210.16;4989066;28;97641;-84
2023/07/28 01:17:06;;;;;;;19.42;18.10;;;;;;;18.69;65.76;99202.53;4981210;28;100648;-83
2023/07/28 01:19:32;;;;;;;18.65;17.25;;;;;;;18.66;66.09;99208.94;4982721;28;98295;-85
2023/07/28 01:22:39;;;;;;;19.45;18.05;;;;;;;18.83;65.48;99191.59;4991427;28;97297;-83
2023/07/28 01:25:29;;;;;;;18.75;17.45;;;;;;;18.76;65.73;99201.06;4976125;28;96847;-83
2023/07/28 01:27:56;;;;;;;19.40;17.70;;;;;;;18.72;65.50;99205.75;4986086;28;98666;-85
2023/07/28 01:30:25;;;;;;;20.30;18.75;;;;;;;18.73;65.86;99202.19;4983606;28;98647;-83
2023/07/28 01:32:51;;;;;;;19.77;18.17;;;;;;;18.68;65.43;99200.84;4977807;28;97263;-83
2023/07/28 01:35:16;;;;;;;19.42;18.13;;;;;;;18.76;65.33;99191.28;4977807;28;97178;-83
2023/07/28 01:37:42;;;;;;;20.17;18.60;;;;;;;18.76;65.52;99199.25;4973762;28;99177;-83
2023/07/28 01:40:08;;;;;;;19.83;18.23;;;;;;;18.73;65.73;99191.56;4983004;28;98276;-83
2023/07/28 01:42:33;;;;;;;18.88;17.67;;;;;;;18.69;66.15;99187.41;4972676;28;96706;-83
2023/07/28 01:44:59;;;;;;;20.05;18.35;;;;;;;18.66;65.86;99187.69;4972353;28;96773;-85
2023/07/28 01:47:25;;;;;;;19.65;18.15;;;;;;;18.64;65.79;99180.81;4984550;28;99342;-84
2023/07/28 01:49:51;;;;;;;20.17;18.58;;;;;;;18.80;65.58;99175.06;4970094;28;100202;-84
2023/07/28 01:52:16;;;;;;;20.13;18.55;;;;;;;18.67;65.91;99175.22;4976361;28;97189;-84
2023/07/28 01:54:42;;;;;;;18.98;17.48;;;;;;;18.58;66.28;99168.06;4988615;28;96957;-84
2023/07/28 01:57:08;;;;;;;19.35;18.00;;;;;;;18.53;66.68;99165.81;4979231;28;99041;-84
2023/07/28 01:59:33;;;;;;;20.35;18.77;;;;;;;18.52;66.54;99170.25;4978951;28;98779;-84
2023/07/28 02:01:59;;;;;;;20.33;19.10;;;;;;;18.62;65.74;99170.34;4978413;28;97033;-84
2023/07/28 02:04:24;;;;;;;19.75;18.35;;;;;;;18.65;66.29;99183.34;4977836;28;96976;-84
2023/07/28 02:06:50;;;;;;;18.55;16.90;;;;;;;18.75;65.75;99170.97;4975822;28;99981;-84
2023/07/28 02:09:17;;;;;;;19.98;18.13;;;;;;;18.77;65.94;99176.19;4969816;28;99846;-84
2023/07/28 02:11:42;;;;;;;20.42;18.80;;;;;;;18.77;65.59;99174.34;4976342;28;96669;-84
2023/07/28 02:14:08;;;;;;;21.65;19.80;;;;;;;18.78;65.64;99169.88;4986272;28;96800;-84
2023/07/28 02:16:33;;;;;;;18.85;17.65;;;;;;;18.84;65.82;99176.47;4982605;28;98834;-84
2023/07/28 02:18:59;;;;;;;19.73;18.27;;;;;;;18.75;65.79;99168.31;4981256;28;98407;-84
2023/07/28 02:21:24;;;;;;;19.38;18.05;;;;;;;18.69;65.88;99171.47;4976944;28;96722;-84
2023/07/28 02:23:50;;;;;;;19.67;18.27;;;;;;;18.81;65.65;99171.44;4986260;28;96866;-84
2023/07/28 02:26:15;;;;;;;20.75;19.02;;;;;;;18.78;65.98;99173.38;4976989;28;100805;-84
2023/07/28 02:28:41;;;;;;;19.10;17.80;;;;;;;18.90;65.60;99181.25;4983964;28;100240;-84
2023/07/28 02:31:06;;;;;;;19.17;17.77;;;;;;;18.99;65.58;99169.81;4971114;28;97264;-84
2023/07/28 02:33:35;;;;;;;20.38;18.90;;;;;;;19.07;65.18;99170.00;4979785;28;96821;-84
2023/07/28 02:36:01;;;;;;;19.17;17.70;;;;;;;19.22;64.90;99181.13;4971600;28;98794;-84
2023/07/28 02:38:26;;;;;;;19.10;17.80;;;;;;;19.28;64.66;99171.75;4971972;28;98187;-84
2023/07/28 02:40:53;;;;;;;18.95;17.63;;;;;;;19.34;64.76;99176.53;4973237;28;96696;-84
2023/07/28 02:43:18;;;;;;;18.73;17.42;;;;;;;19.38;64.72;99176.13;4970188;28;97152;-84
2023/07/28 02:45:48;;;;;;;19.55;17.85;;;;;;;19.43;64.74;99171.25;4971090;28;98867;-84
2023/07/28 02:48:14;;;;;;;19.63;18.08;;;;;;;19.44;64.94;99162.28;4974899;28;99064;-84
2023/07/28 02:50:45;;;;;;;18.77;17.35;;;;;;;19.36;65.25;99164.78;4973009;28;98230;-84
2023/07/28 02:53:11;;;;;;;18.40;17.13;;;;;;;19.22;65.42;99163.31;4976928;28;96612;-84
2023/07/28 02:55:41;;;;;;;18.58;17.17;;;;;;;19.22;65.28;99162.50;4975122;28;100362;-84
2023/07/28 02:58:07;;;;;;;;;;;;;;;19.17;65.63;99156.75;4974937;28;97269;-84
2023/07/28 03:00:33;;;;;;;20.50;19.10;;;;;;;19.17;65.54;99156.75;4979772;28;96669;-84
2023/07/28 03:02:58;;;;;;;20.13;18.73;;;;;;;19.12;65.66;99166.94;4986452;28;97578;-84
2023/07/28 03:05:24;;;;;;;19.20;18.00;;;;;;;19.12;65.82;99158.97;4979381;28;100595;-84
2023/07/28 03:08:08;;;;;;;19.17;17.77;;;;;;;19.16;65.81;99166.53;4979255;28;97012;-84
2023/07/28 03:10:34;;;;;;;18.92;17.73;;;;;;;19.22;65.87;99173.97;4983822;28;97841;-84
2023/07/28 03:12:59;;;;;;;20.08;18.75;;;;;;;19.29;65.47;99168.13;4977012;28;97250;-84
2023/07/28 03:15:25;;;;;;;19.27;18.08;;;;;;;19.30;65.61;99180.44;4984734;28;98640;-84
2023/07/28 03:17:50;;;;;;;19.90;18.45;;;;;;;19.21;66.06;99174.13;4977156;28;98835;-83
2023/07/28 03:20:16;;;;;;;18.38;17.30;;;;;;;19.30;65.66;99178.63;4984257;28;97071;-84
2023/07/28 03:22:42;;;;;;;18.85;17.65;;;;;;;19.23;66.10;99181.00;4985219;28;97634;-84
2023/07/28 03:25:09;;;;;;;18.98;17.48;;;;;;;19.26;66.44;99185.22;4986641;28;99099;-84
2023/07/28 03:27:35;;;;;;;19.75;18.00;;;;;;;19.19;66.59;99179.56;4985819;28;97221;-84
2023/07/28 03:30:01;;;;;;;18.65;17.52;;;;;;;19.21;66.56;99180.28;4987220;28;96787;-84
2023/07/28 03:32:26;;;;;;;20.25;18.67;;;;;;;19.13;67.17;99177.44;4986851;28;97774;-84
2023/07/28 03:34:52;;;;;;;18.75;17.38;;;;;;;19.24;66.68;99173.84;4981392;28;98885;-84
2023/07/28 03:37:19;;;;;;;18.30;16.98;;;;;;;19.31;66.77;99177.63;4984752;28;100250;-85
2023/07/28 03:39:44;;;;;;;19.25;17.95;;;;;;;19.34;66.62;99166.72;4983620;28;96908;-84
2023/07/28 03:42:10;;;;;;;18.95;17.73;;;;;;;19.31;67.25;99174.13;4979308;28;97008;-83
2023/07/28 03:44:37;;;;;;;18.00;16.80;;;;;;;19.28;66.69;99167.25;4991353;28;98785;-83
2023/07/28 03:47:06;;;;;;;18.23;17.17;;;;;;;19.40;66.53;99163.53;4976312;28;98800;-84
2023/07/28 03:49:32;;;;;;;18.40;17.10;;;;;;;19.39;66.58;99167.16;4972602;28;97083;-84
2023/07/28 03:51:58;;;;;;;17.25;16.15;;;;;;;19.27;66.95;99162.94;4977285;28;96959;-84
2023/07/28 03:54:24;;;;;;;18.05;16.95;;;;;;;19.25;67.17;99158.72;4984021;28;98685;-85
2023/07/28 03:56:49;;;;;;;19.33;18.00;;;;;;;19.16;67.21;99158.56;4988048;28;98646;-84
2023/07/28 03:59:15;;;;;;;18.13;16.98;;;;;;;19.15;66.91;99154.22;4973721;28;96890;-84
2023/07/28 04:01:40;;;;;;;18.15;17.15;;;;;;;19.20;66.76;99154.66;4975822;28;97065;-85
2023/07/28 04:04:06;;;;;;;18.70;17.60;;;;;;;19.17;66.97;99146.13;4991974;28;100411;-84
2023/07/28 04:06:45;;;;;;;17.83;16.63;;;;;;;19.26;66.72;99147.97;4979609;28;97728;-84
2023/07/28 04:09:14;;;;;;;20.00;18.48;;;;;;;19.16;67.28;99147.91;4983820;28;97164;-84
2023/07/28 04:11:39;;;;;;;19.33;17.92;;;;;;;19.03;67.39;99141.16;4988449;28;96763;-84
2023/07/28 04:14:05;;;;;;;17.45;16.45;;;;;;;19.03;67.79;99143.84;4987015;28;99050;-84
2023/07/28 04:16:31;;;;;;;17.98;16.77;;;;;;;18.92;67.91;99134.13;4969703;28;99739;-84
2023/07/28 04:18:57;;;;;;;19.85;18.55;;;;;;;18.84;68.45;99124.16;4987119;28;97091;-84
2023/07/28 04:21:23;;;;;;;20.08;18.67;;;;;;;18.79;68.72;99131.66;4985844;28;96838;-84
2023/07/28 04:23:49;;;;;;;18.77;17.67;;;;;;;18.66;68.97;99121.25;4982130;28;99948;-84
2023/07/28 04:26:14;;;;;;;17.13;16.15;;;;;;;18.70;68.86;99128.00;4982181;28;99987;-84
2023/07/28 04:28:40;;;;;;;18.90;17.60;;;;;;;18.68;69.09;99119.31;4976291;28;96824;-84
2023/07/28 04:31:06;;;;;;;19.58;18.38;;;;;;;18.77;68.86;99121.19;4980903;28;97270;-84
2023/07/28 04:33:54;;;;;;;18.10;16.90;;;;;;;18.78;68.44;99119.38;4982540;28;98891;-85
2023/07/28 04:36:21;;;;;;;18.90;17.55;;;;;;;18.75;68.59;99123.13;4971205;28;97784;-85
2023/07/28 04:38:47;;;;;;;19.15;17.85;;;;;;;18.73;68.58;99117.13;4986432;28;97237;-84
2023/07/28 04:41:12;;;;;;;19.42;18.13;;;;;;;18.69;68.87;99118.31;4990456;28;96892;-84
2023/07/28 04:43:48;;;;;;;18.48;17.40;;;;;;;18.74;68.84;99121.47;4976646;28;100173;-84
2023/07/28 04:46:14;;;;;;;18.95;17.75;;;;;;;18.77;68.79;99118.53;4972645;28;97250;-84
2023/07/28 04:48:42;;;;;;;18.75;17.65;;;;;;;18.84;68.54;99124.16;4971687;28;97013;-84
2023/07/28 04:51:27;;;;;;;18.65;17.58;;;;;;;18.99;68.14;99127.28;4991074;28;97156;-84
2023/07/28 04:54:11;;;;;;;19.63;18.02;;;;;;;18.99;68.34;99121.97;4981192;28;97118;-85
2023/07/28 04:56:37;;;;;;;20.73;18.83;;;;;;;19.03;68.43;99120.72;4971129;28;100015;-84
2023/07/28 04:59:03;;;;;;;19.35;18.13;;;;;;;18.97;68.81;99130.09;4983058;28;96699;-85
2023/07/28 05:01:28;;;;;;;17.75;16.75;;;;;;;19.05;68.39;99132.06;4982547;28;96879;-85
2023/07/28 05:03:54;;;;;;;19.23;18.02;;;;;;;19.16;68.01;99139.94;4972863;28;99315;-85
2023/07/28 05:06:24;;;;;;;19.92;18.63;;;;;;;19.20;68.15;99146.69;4977210;28;98858;-84
2023/07/28 05:08:49;;;;;;;19.23;17.77;;;;;;;19.15;68.88;99146.25;4985067;28;96742;-84
2023/07/28 05:11:21;;;;;;;19.10;17.90;;;;;;;19.26;68.95;99147.97;4984199;28;96890;-85
2023/07/28 05:13:47;;;;;;;19.45;18.15;;;;;;;19.32;69.06;99147.41;4970655;28;100569;-85
2023/07/28 05:16:12;;;;;;;18.85;17.75;;;;;;;19.36;69.29;99158.63;4977042;28;98862;-85
2023/07/28 05:18:58;;;;;;;19.33;17.77;;;;;;;19.37;69.50;99147.84;4989674;28;96689;-84
2023/07/28 05:21:42;;;;;;;19.20;17.83;;;;;;;19.47;69.78;99147.03;4976836;28;97461;-84
2023/07/28 05:24:12;;;;;;;18.85;17.55;;;;;;;19.56;69.66;99141.72;4986201;28;99090;-85
2023/07/28 05:26:37;;;;;;;19.92;17.92;;;;;;;19.69;69.40;99133.47;4974788;28;99816;-85
2023/07/28 05:29:03;;;;;;;18.73;17.48;;;;;;;19.75;69.41;99140.06;4971542;28;97132;-85
2023/07/28 05:31:28;;;;;;;19.30;17.95;;;;;;;19.81;69.51;99143.03;4990088;28;96794;-84
2023/07/28 05:33:54;;;;;;;18.42;17.33;;;;;;;19.87;69.33;99142.47;4954226;28;100314;-85
2023/07/28 05:36:20;;;;;;;18.60;17.17;;;;;;;19.87;69.54;99137.16;4982598;28;100385;-85
2023/07/28 05:38:47;;;;;;;18.33;17.13;;;;;;;19.70;70.12;99137.00;4989407;28;97190;-86
2023/07/28 05:41:12;;;;;;;19.27;17.90;;;;;;;19.58;70.62;99130.94;4978394;28;96964;-85
2023/07/28 05:43:38;;;;;;;19.08;17.88;;;;;;;19.66;70.16;99133.75;4988134;28;99451;-85
2023/07/28 05:46:04;;;;;;;19.42;18.00;;;;;;;19.69;69.99;99130.81;4978541;28;99987;-85
2023/07/28 05:48:33;;;;;;;18.95;17.55;;;;;;;19.75;70.22;99135.63;4976015;28;96717;-85
2023/07/28 05:50:59;;;;;;;18.55;17.45;;;;;;;19.86;69.55;99143.44;4982717;28;96884;-86
2023/07/28 05:53:25;;;;;;;18.10;16.90;;;;;;;19.70;70.38;99142.34;4973829;28;99198;-85
2023/07/28 05:55:55;;;;;;;18.10;17.00;;;;;;;19.52;70.66;99128.81;4984456;28;98676;-86
2023/07/28 05:58:22;;;;;;;18.00;16.90;;;;;;;19.49;70.89;99135.28;4985856;28;96672;-86
2023/07/28 06:00:48;;;;;;;18.77;17.58;;;;;;;19.63;70.97;99149.97;4977741;28;96808;-86
2023/07/28 06:03:33;;;;;;;17.17;16.17;;;;;;;19.64;70.74;99143.69;4977876;28;98860;-87
2023/07/28 06:06:09;;;;;;;17.45;16.38;;;;;;;19.71;71.05;99144.00;4984963;28;99599;-85
2023/07/28 06:08:35;;;;;;;18.48;17.27;;;;;;;19.89;70.42;99140.50;4986163;28;97048;-85
2023/07/28 06:11:04;;;;;;;18.95;17.75;;;;;;;20.10;69.99;99143.03;4979252;28;97445;-86
2023/07/28 06:13:30;;;;;;;18.08;16.80;;;;;;;20.07;69.93;99145.13;4975406;28;98793;-86
2023/07/28 06:15:58;;;;;;;18.77;17.58;;;;;;;19.94;70.14;99139.25;4985098;28;98618;-85
2023/07/28 06:18:24;;;;;;;19.25;18.08;;;;;;;20.03;70.19;99133.06;4974496;28;97028;-85
2023/07/28 06:20:56;;;;;;;18.25;17.15;;;;;;;20.26;69.66;99145.09;4974270;28;97783;-84
2023/07/28 06:23:22;;;;;;;18.73;17.48;;;;;;;20.25;69.62;99150.59;4989074;28;99055;-87
2023/07/28 06:25:48;;;;;;;19.15;17.95;;;;;;;20.11;70.18;99144.69;4993128;28;98174;-85
2023/07/28 06:28:14;;;;;;;18.65;17.30;;;;;;;20.09;69.79;99138.66;4982234;28;97302;-85
2023/07/28 06:30:40;;;;;;;17.83;16.73;;;;;;;20.15;69.75;99149.75;4980775;28;97043;-85
2023/07/28 06:33:06;;;;;;;18.27;17.17;;;;;;;20.10;69.42;99143.03;4986540;28;98981;-85
2023/07/28 06:35:32;;;;;;;19.05;17.55;;;;;;;20.32;68.99;99157.03;4978237;28;98696;-85
2023/07/28 06:37:59;;;;;;;18.10;17.10;;;;;;;20.16;69.31;99154.09;4985416;28;96691;-85
2023/07/28 06:40:25;;;;;;;17.58;16.38;;;;;;;20.08;69.79;99162.78;4989931;28;97363;-85
2023/07/28 06:42:51;;;;;;;17.67;16.67;;;;;;;20.24;69.48;99163.03;4980720;28;100737;-85
2023/07/28 06:45:17;;;;;;;17.80;16.70;;;;;;;20.32;69.30;99154.34;4982149;28;98902;-84
2023/07/28 06:47:43;;;;;;;18.00;16.90;;;;;;;20.18;69.65;99160.13;4975340;28;96717;-84
2023/07/28 06:50:11;;;;;;;18.10;17.00;;;;;;;20.25;69.37;99153.25;4974538;28;97079;-85
2023/07/28 06:52:38;;;;;;;17.40;16.40;;;;;;;20.33;69.48;99159.56;4981408;28;97959;-85
2023/07/28 06:55:04;;;;;;;16.85;15.85;;;;;;;20.52;68.69;99160.50;4978016;28;98448;-85
2023/07/28 06:57:30;;;;;;;18.27;17.13;;;;;;;20.45;69.27;99159.38;4974271;28;96701;-85
2023/07/28 06:59:56;;;;;;;18.67;17.20;;;;;;;20.28;69.64;99148.47;4981381;28;96843;-85
2023/07/28 07:02:21;;;;;;;17.20;16.00;;;;;;;20.52;69.32;99157.81;4975966;28;98541;-85
2023/07/28 07:04:47;;;;;;;18.40;17.30;;;;;;;20.45;69.48;99157.56;4979660;28;98937;-85
2023/07/28 07:07:12;;;;;;;17.73;16.63;;;;;;;20.52;69.31;99155.16;4978102;28;97186;-85
2023/07/28 07:09:38;;;;;;;18.55;17.45;;;;;;;20.61;69.06;99164.16;4976042;28;96779;-85
2023/07/28 07:12:04;;;;;;;18.10;16.90;;;;;;;20.73;68.64;99158.50;4984527;28;100405;-84
2023/07/28 07:14:30;;;;;;;17.90;16.63;;;;;;;20.74;68.65;99178.84;4983469;28;100218;-85
2023/07/28 07:16:55;;;;;;;18.27;17.17;;;;;;;20.92;68.33;99176.28;4978285;28;98572;-84
2023/07/28 07:19:21;;;;;;;18.65;17.42;;;;;;;20.96;68.50;99182.97;4982900;28;97082;-84
2023/07/28 07:21:47;;;;;;;17.50;16.50;;;;;;;21.13;68.14;99178.72;4990048;28;98914;-87
2023/07/28 07:24:13;;;;;;;18.70;17.25;;;;;;;21.23;67.31;99182.19;4994076;28;98704;-87
2023/07/28 07:26:40;;;;;;;17.33;16.27;;;;;;;21.34;66.69;99188.31;4988735;28;96651;-87
2023/07/28 07:29:05;;;;;;;17.30;16.30;;;;;;;21.34;66.25;99183.78;4988415;28;96887;-90
2023/07/28 07:31:31;;;;;;;17.02;16.00;;;;;;;21.38;65.69;99181.69;4983032;28;98006;-84
2023/07/28 07:33:56;;;;;;;17.35;16.35;;;;;;;21.47;65.30;99196.84;4985299;28;98840;-87
2023/07/28 07:36:22;;;;;;;17.83;16.70;;;;;;;21.46;65.44;99185.31;4981191;28;96795;-86
2023/07/28 07:38:51;;;;;;;17.88;16.88;;;;;;;21.44;65.07;99192.63;4974370;28;97011;-84
2023/07/28 07:41:19;;;;;;;17.70;16.63;;;;;;;21.50;65.12;99185.00;4985128;28;99094;-87
2023/07/28 07:43:46;;;;;;;18.00;16.85;;;;;;;21.39;64.91;99194.06;4981630;28;98841;-88
2023/07/28 07:46:12;;;;;;;18.27;17.27;;;;;;;21.41;64.76;99186.72;4982387;28;97103;-88
2023/07/28 07:48:37;;;;;;;18.23;17.23;;;;;;;21.44;64.68;99189.13;4979551;28;96842;-88
2023/07/28 07:51:03;;;;;;;18.08;17.08;;;;;;;21.65;64.49;99191.53;4973229;28;98805;-88
2023/07/28 07:53:29;;;;;;;18.25;17.02;;;;;;;21.68;64.50;99200.06;4985868;28;98392;-84
2023/07/28 07:55:54;;;;;;;19.02;17.83;;;;;;;21.58;64.70;99193.09;4984176;28;96891;-87
2023/07/28 07:58:20;;;;;;;18.55;17.45;;;;;;;21.54;65.02;99203.25;4986536;28;97079;-87
2023/07/28 08:00:45;;;;;;;17.70;16.70;;;;;;;21.58;64.94;99201.94;4975107;28;97850;-87
2023/07/28 08:03:11;;;;;;;17.73;16.70;;;;;;;21.64;64.80;99197.84;4978019;28;98930;-85
2023/07/28 08:05:37;;;;;;;18.65;17.15;;;;;;;21.66;64.37;99195.88;4983477;28;97163;-84
2023/07/28 08:08:03;;;;;;;17.73;16.73;;;;;;;21.75;64.08;99200.31;4976735;28;96737;-85
2023/07/28 08:10:28;;;;;;;17.23;16.23;;;;;;;21.81;63.84;99207.72;4976401;28;98799;-85
2023/07/28 08:12:55;;;;;;;18.33;17.27;;;;;;;21.66;64.68;99207.38;4982714;28;98378;-85
2023/07/28 08:15:21;;;;;;;17.55;16.45;;;;;;;21.63;64.87;99210.34;4974470;28;96726;-84
2023/07/28 08:17:46;;;;;;;17.83;16.75;;;;;;;21.68;64.99;99210.75;4982376;28;97425;-84
2023/07/28 08:20:12;;;;;;;17.90;16.90;;;;;;;21.74;65.03;99211.16;4974454;28;98935;-83
2023/07/28 08:22:37;;;;;;;17.85;16.85;;;;;;;21.80;65.13;99210.56;4976080;28;98297;-84
2023/07/28 08:25:04;;;;;;;18.10;17.10;;;;;;;21.90;65.22;99206.84;4983360;28;97170;-82
2023/07/28 08:27:30;;;;;;;18.50;17.27;;;;;;;22.09;64.92;99211.16;4971742;28;97498;-84
2023/07/28 08:29:55;;;;;;;17.83;16.83;;;;;;;22.02;65.16;99203.91;4982569;28;99052;-82
2023/07/28 08:32:21;;;;;;;18.48;17.40;;;;;;;22.07;65.46;99199.78;4972753;28;98716;-87
2023/07/28 08:34:47;;;;;;;18.00;17.00;;;;;;;22.32;64.84;99206.22;4978049;28;96699;-87
2023/07/28 08:37:13;;;;;;;18.50;17.25;;;;;;;22.33;64.64;99210.56;4979710;28;96862;-82
2023/07/28 08:39:39;;;;;;;17.88;16.88;;;;;;;22.25;64.72;99207.84;4979555;28;99125;-82
2023/07/28 08:42:05;;;;;;;17.77;16.77;;;;;;;22.24;64.87;99208.00;4978778;28;98666;-82
2023/07/28 08:44:33;;;;;;;18.30;17.15;;;;;;;22.23;64.84;99215.19;4983311;28;96771;-83
2023/07/28 08:47:04;;;;;;;19.23;18.13;;;;;;;22.27;64.50;99211.19;4980683;28;97044;-82
2023/07/28 08:49:32;;;;;;;17.00;16.10;;;;;;;22.22;64.87;99218.00;4983324;28;98883;-79
2023/07/28 08:51:59;;;;;;;17.33;16.33;;;;;;;22.19;64.88;99221.81;4973210;28;99020;-81
2023/07/28 08:54:25;;;;;;;18.83;17.75;;;;;;;22.17;65.00;99220.28;4974651;28;97351;-82
2023/07/28 08:56:51;;;;;;;19.13;17.80;;;;;;;22.20;65.12;99220.84;4971548;28;96820;-82
2023/07/28 08:59:25;;;;;;;18.70;17.60;;;;;;;22.17;66.00;99237.19;4980746;28;97968;-83
2023/07/28 09:01:52;;;;;;;20.42;18.75;;;;;;;22.06;66.46;99227.50;4983020;28;98746;-80
2023/07/28 09:04:18;;;;;;;19.92;18.70;;;;;;;22.39;66.41;99230.50;4971266;28;98173;-83
2023/07/28 09:06:47;;;;;;;19.50;18.30;;;;;;;23.18;64.58;99224.22;4972808;28;96819;-83
2023/07/28 09:09:22;;;;;;;18.70;17.60;;;;;;;23.28;64.40;99219.59;4974254;28;99381;-84
2023/07/28 09:11:49;;;;;;;20.08;18.60;;;;;;;23.43;63.94;99217.13;4972748;28;98753;-83
2023/07/28 09:14:16;;;;;;;19.98;18.77;;;;;;;23.67;63.51;99221.75;4975564;28;96794;-82
2023/07/28 09:16:42;;;;;;;19.55;18.30;;;;;;;24.65;61.13;99214.88;4973663;28;97009;-78
2023/07/28 09:19:09;;;;;;;19.25;17.90;;;;;;;24.94;61.08;99217.00;4972634;28;99180;-79
2023/07/28 09:21:35;;;;;;;19.42;18.23;;;;;;;25.91;58.41;99221.19;4976786;28;98400;-80
2023/07/28 09:24:03;;;;;;;19.25;17.98;;;;;;;26.46;56.98;99213.91;4974736;28;97950;-79
2023/07/28 09:26:44;;;;;;;19.10;18.00;;;;;;;26.20;57.17;99220.47;4976386;28;96882;-80
2023/07/28 09:29:20;;;;;;;19.23;18.02;;;;;;;26.19;57.03;99223.38;4980621;28;99695;-72
2023/07/28 09:31:47;;;;;;;18.77;17.60;;;;;;;26.15;57.46;99222.03;4984048;28;98488;-72
2023/07/28 09:34:23;;;;;;;19.10;17.90;;;;;;;26.09;57.61;99202.09;4971369;28;96897;-72
2023/07/28 09:36:49;;;;;;;18.88;17.73;;;;;;;26.26;56.99;99202.78;4970803;28;96660;-72
2023/07/28 09:39:14;;;;;;;19.55;18.33;;;;;;;26.47;56.28;99204.84;4976101;28;98614;-72
2023/07/28 09:41:40;;;;;;;19.52;18.23;;;;;;;27.13;54.59;99199.63;4975710;28;98808;-72
2023/07/28 09:44:06;;;;;;;19.45;18.25;;;;;;;27.61;52.86;99208.19;4974591;28;97169;-72
2023/07/28 09:46:38;;;;;;;19.55;18.27;;;;;;;27.43;52.44;99199.63;4971482;28;97910;-75
2023/07/28 09:49:10;;;;;;;19.00;17.80;;;;;;;26.92;53.42;99202.25;4976034;28;99184;-73
2023/07/28 09:51:36;;;;;;;19.50;18.20;;;;;;;26.28;54.69;99206.16;4969045;28;98486;-73
2023/07/28 09:54:06;;;;;;;19.45;18.13;;;;;;;26.27;54.72;99203.63;4982679;28;97690;-72
2023/07/28 09:56:32;;;;;;;19.13;18.03;;;;;;;27.21;53.32;99209.53;4969939;28;98738;-75
2023/07/28 09:58:59;;;;;;;19.77;18.48;;;;;;;27.47;52.77;99199.09;4972455;28;98587;-74
2023/07/28 10:01:24;;;;;;;19.10;17.80;;;;;;;27.11;53.31;99198.97;4976182;28;98411;-75
2023/07/28 10:03:50;;;;;;;18.80;17.70;;;;;;;27.16;52.90;99196.59;4983645;28;96759;-75
2023/07/28 10:06:17;;;;;;;18.65;17.55;;;;;;;27.18;52.59;99199.94;4988985;28;97307;-75
2023/07/28 10:08:43;;;;;;;19.02;17.83;;;;;;;26.99;53.09;99198.59;4982303;28;98899;-75
2023/07/28 10:11:11;;;;;;;18.40;17.20;;;;;;;26.72;53.30;99208.16;4978497;28;98441;-74
2023/07/28 10:13:46;;;;;;;19.45;17.75;;;;;;;26.74;53.07;99202.59;4972630;28;97155;-76
2023/07/28 10:16:14;;;;;;;20.17;18.88;;;;;;;26.63;53.73;99193.94;4972729;28;98073;-76
2023/07/28 10:18:40;;;;;;;19.50;18.20;;;;;;;27.13;52.65;99199.63;4974620;28;98878;-75
2023/07/28 10:21:09;;;;;;;19.80;18.50;;;;;;;26.94;53.19;99194.81;4972013;28;98585;-76
2023/07/28 10:23:38;;;;;;;19.60;18.00;;;;;;;26.77;53.15;99194.97;4979928;28;96666;-75
2023/07/28 10:26:06;;;;;;;19.17;17.80;;;;;;;26.84;52.79;99187.00;4977598;28;97271;-76
2023/07/28 10:28:41;;;;;;;19.50;17.88;;;;;;;27.41;51.56;99190.94;4973791;28;98825;-76
2023/07/28 10:31:10;;;;;;;18.83;17.73;;;;;;;27.73;50.63;99197.75;4976024;28;98858;-74
2023/07/28 10:33:46;;;;;;;18.45;17.38;;;;;;;27.94;49.89;99188.88;4981631;28;97041;-74
2023/07/28 10:36:33;;;;;;;18.17;17.17;;;;;;;28.03;49.45;99192.28;4975384;28;97191;-74
2023/07/28 10:39:04;;;;;;;18.85;17.67;;;;;;;28.09;49.14;99192.34;4977449;28;98763;-75
2023/07/28 10:41:30;;;;;;;18.23;17.13;;;;;;;28.15;48.97;99198.81;4976788;28;98723;-75
2023/07/28 10:43:56;;;;;;;18.45;17.40;;;;;;;28.17;48.65;99204.88;4972316;28;97244;-74
2023/07/28 10:46:22;;;;;;;18.25;17.15;;;;;;;28.01;48.90;99194.31;4974103;28;96806;-74
2023/07/28 10:48:50;;;;;;;18.52;17.27;;;;;;;27.95;48.50;99195.91;4982568;28;98631;-75
2023/07/28 10:51:33;;;;;;;17.90;16.80;;;;;;;27.93;47.95;99204.22;4981178;28;98389;-74
2023/07/28 10:53:59;;;;;;;18.30;17.10;;;;;;;28.03;47.58;99203.88;4984434;28;96774;-74
2023/07/28 10:56:25;;;;;;;17.98;16.98;;;;;;;28.19;47.13;99194.72;4977449;28;97107;-74
2023/07/28 10:59:02;;;;;;;19.02;17.92;;;;;;;28.31;46.75;99190.47;4973975;28;99057;-75
2023/07/28 11:01:34;;;;;;;19.08;17.88;;;;;;;28.29;46.58;99191.69;4970567;28;98672;-75
2023/07/28 11:04:20;;;;;;;18.55;17.45;;;;;;;28.25;46.95;99191.25;4973126;28;96772;-75
2023/07/28 11:06:50;;;;;;;18.77;17.60;;;;;;;28.37;46.23;99194.25;4976673;28;96768;-75
2023/07/28 11:09:20;;;;;;;17.90;16.90;;;;;;;27.95;45.98;99193.22;4980044;28;99206;-75
2023/07/28 11:11:46;;;;;;;19.08;17.98;;;;;;;27.70;46.18;99187.34;4984449;28;98787;-75
2023/07/28 11:14:11;;;;;;;18.30;17.00;;;;;;;27.78;46.10;99181.84;4991276;28;98207;-75
2023/07/28 11:16:39;;;;;;;18.35;17.15;;;;;;;27.95;46.19;99188.66;4985699;28;97319;-80
2023/07/28 11:19:11;;;;;;;19.33;17.58;;;;;;;27.99;46.25;99186.44;4976337;28;99295;-80